sensor_id;sensor_type;location;lat;lon;timestamp;pressure;altitude;pressure_sealevel;temperature;humidity
55077;BME280;40971;44.702;11.030;2023-04-25T00:07:04;100579.00;;;10.48;81.43
55077;BME280;40971;44.702;11.030;2023-04-25T00:17:06;100579.00;;;10.32;82.35
55077;BME280;40971;44.702;11.030;2023-04-25T00:27:26;100588.53;;;10.41;81.83
55077;BME280;40971;44.702;11.030;2023-04-25T00:37:28;100570.31;;;10.23;82.53
55077;BME280;40971;44.702;11.030;2023-04-25T00:47:29;100564.53;;;10.12;83.11
55077;BME280;40971;44.702;11.030;2023-04-25T00:57:30;100557.94;;;10.00;83.62
55077;BME280;40971;44.702;11.030;2023-04-25T01:07:31;100555.97;;;9.85;84.39
55077;BME280;40971;44.702;11.030;2023-04-25T01:17:34;100558.56;;;9.77;84.65
55077;BME280;40971;44.702;11.030;2023-04-25T01:27:54;100554.00;;;9.79;84.77
55077;BME280;40971;44.702;11.030;2023-04-25T01:37:57;100552.53;;;9.77;84.49
55077;BME280;40971;44.702;11.030;2023-04-25T01:48:17;100542.66;;;9.71;84.64
55077;BME280;40971;44.702;11.030;2023-04-25T01:58:18;100550.03;;;9.75;84.42
55077;BME280;40971;44.702;11.030;2023-04-25T02:08:19;100565.16;;;9.73;83.85
55077;BME280;40971;44.702;11.030;2023-04-25T02:18:39;100565.78;;;9.59;83.73
55077;BME280;40971;44.702;11.030;2023-04-25T02:28:40;100564.28;;;9.49;84.17
55077;BME280;40971;44.702;11.030;2023-04-25T02:38:42;100556.03;;;9.02;83.59
55077;BME280;40971;44.702;11.030;2023-04-25T02:48:43;100538.66;;;8.67;86.99
55077;BME280;40971;44.702;11.030;2023-04-25T02:58:44;100556.69;;;8.96;86.51
55077;BME280;40971;44.702;11.030;2023-04-25T03:08:45;100537.34;;;8.97;86.56
55077;BME280;40971;44.702;11.030;2023-04-25T03:18:46;100524.34;;;8.79;83.68
55077;BME280;40971;44.702;11.030;2023-04-25T03:28:48;100521.69;;;8.45;84.63
55077;BME280;40971;44.702;11.030;2023-04-25T03:38:49;100530.44;;;8.36;84.62
55077;BME280;40971;44.702;11.030;2023-04-25T03:48:51;100522.06;;;8.33;84.59
55077;BME280;40971;44.702;11.030;2023-04-25T03:58:52;100513.84;;;8.28;83.93
55077;BME280;40971;44.702;11.030;2023-04-25T04:08:54;100517.47;;;7.74;87.05
55077;BME280;40971;44.702;11.030;2023-04-25T04:18:55;100526.03;;;8.01;87.70
55077;BME280;40971;44.702;11.030;2023-04-25T04:28:56;100512.81;;;8.03;86.32
55077;BME280;40971;44.702;11.030;2023-04-25T04:39:00;100517.97;;;8.30;86.22
55077;BME280;40971;44.702;11.030;2023-04-25T04:49:05;100552.59;;;8.42;84.76
55077;BME280;40971;44.702;11.030;2023-04-25T04:59:07;100562.31;;;8.14;90.16
55077;BME280;40971;44.702;11.030;2023-04-25T05:09:08;100570.44;;;8.98;89.54
55077;BME280;40971;44.702;11.030;2023-04-25T05:19:09;100570.47;;;9.40;88.05
55077;BME280;40971;44.702;11.030;2023-04-25T05:29:10;100578.03;;;9.51;86.80
55077;BME280;40971;44.702;11.030;2023-04-25T05:39:11;100570.69;;;9.62;87.47
55077;BME280;40971;44.702;11.030;2023-04-25T05:49:15;100600.31;;;9.97;86.05
55077;BME280;40971;44.702;11.030;2023-04-25T05:59:17;100593.41;;;10.12;85.86
55077;BME280;40971;44.702;11.030;2023-04-25T06:09:18;100604.78;;;10.44;85.35
55077;BME280;40971;44.702;11.030;2023-04-25T06:19:19;100619.41;;;10.63;85.25
55077;BME280;40971;44.702;11.030;2023-04-25T06:29:22;100629.25;;;10.85;85.29
55077;BME280;40971;44.702;11.030;2023-04-25T06:39:23;100642.38;;;10.93;84.26
55077;BME280;40971;44.702;11.030;2023-04-25T06:49:26;100659.41;;;11.30;84.62
55077;BME280;40971;44.702;11.030;2023-04-25T06:59:27;100662.91;;;12.45;82.42
55077;BME280;40971;44.702;11.030;2023-04-25T07:09:28;100662.63;;;13.00;81.39
55077;BME280;40971;44.702;11.030;2023-04-25T07:19:29;100659.44;;;13.05;78.44
55077;BME280;40971;44.702;11.030;2023-04-25T07:29:31;100674.63;;;13.03;80.30
55077;BME280;40971;44.702;11.030;2023-04-25T07:39:33;100698.44;;;12.04;76.47
55077;BME280;40971;44.702;11.030;2023-04-25T07:49:34;100718.34;;;11.59;76.51
55077;BME280;40971;44.702;11.030;2023-04-25T07:59:36;100731.88;;;12.03;72.62
55077;BME280;40971;44.702;11.030;2023-04-25T08:09:37;100721.53;;;12.78;70.94
55077;BME280;40971;44.702;11.030;2023-04-25T08:19:37;100724.66;;;12.96;70.12
55077;BME280;40971;44.702;11.030;2023-04-25T08:29:39;100755.88;;;12.70;69.65
55077;BME280;40971;44.702;11.030;2023-04-25T08:39:40;100762.25;;;13.21;65.88
55077;BME280;40971;44.702;11.030;2023-04-25T08:49:45;100754.28;;;13.43;62.14
55077;BME280;40971;44.702;11.030;2023-04-25T08:59:48;100751.31;;;14.26;61.37
55077;BME280;40971;44.702;11.030;2023-04-25T09:09:50;100766.56;;;15.51;54.53
55077;BME280;40971;44.702;11.030;2023-04-25T09:19:52;100765.44;;;14.90;56.14
55077;BME280;40971;44.702;11.030;2023-04-25T09:29:58;100786.19;;;14.87;56.63
55077;BME280;40971;44.702;11.030;2023-04-25T09:40:05;100803.78;;;14.58;58.53
55077;BME280;40971;44.702;11.030;2023-04-25T09:50:14;100806.59;;;15.35;55.39
55077;BME280;40971;44.702;11.030;2023-04-25T10:00:16;100807.22;;;15.16;54.50
55077;BME280;40971;44.702;11.030;2023-04-25T10:10:18;100804.22;;;14.98;56.16
55077;BME280;40971;44.702;11.030;2023-04-25T10:20:22;100809.22;;;15.35;55.31
55077;BME280;40971;44.702;11.030;2023-04-25T10:30:22;100793.56;;;15.12;55.06
55077;BME280;40971;44.702;11.030;2023-04-25T10:40:24;100795.19;;;15.41;56.01
55077;BME280;40971;44.702;11.030;2023-04-25T10:50:37;100797.84;;;16.44;51.67
55077;BME280;40971;44.702;11.030;2023-04-25T11:00:38;100773.34;;;16.42;50.12
55077;BME280;40971;44.702;11.030;2023-04-25T11:10:41;100766.88;;;16.64;51.86
55077;BME280;40971;44.702;11.030;2023-04-25T11:20:43;100770.00;;;17.01;50.99
55077;BME280;40971;44.702;11.030;2023-04-25T11:30:49;100775.53;;;16.99;52.52
55077;BME280;40971;44.702;11.030;2023-04-25T11:40:51;100785.56;;;16.30;52.99
55077;BME280;40971;44.702;11.030;2023-04-25T11:50:53;100782.63;;;16.72;51.98
55077;BME280;40971;44.702;11.030;2023-04-25T12:00:56;100799.38;;;16.66;51.14
55077;BME280;40971;44.702;11.030;2023-04-25T12:10:59;100791.66;;;17.83;49.35
55077;BME280;40971;44.702;11.030;2023-04-25T12:21:00;100765.72;;;16.80;52.66
55077;BME280;40971;44.702;11.030;2023-04-25T12:31:06;100747.53;;;18.13;47.42
55077;BME280;40971;44.702;11.030;2023-04-25T12:41:07;100729.91;;;18.19;51.07
55077;BME280;40971;44.702;11.030;2023-04-25T12:51:08;100715.34;;;17.83;52.00
55077;BME280;40971;44.702;11.030;2023-04-25T13:01:10;100735.09;;;18.45;49.59
55077;BME280;40971;44.702;11.030;2023-04-25T13:11:12;100748.56;;;16.82;55.46
55077;BME280;40971;44.702;11.030;2023-04-25T13:21:15;100756.13;;;16.85;55.72
55077;BME280;40971;44.702;11.030;2023-04-25T13:31:16;100746.28;;;16.66;54.86
55077;BME280;40971;44.702;11.030;2023-04-25T13:41:18;100764.63;;;16.55;54.60
55077;BME280;40971;44.702;11.030;2023-04-25T13:51:19;100772.72;;;15.93;57.13
55077;BME280;40971;44.702;11.030;2023-04-25T14:01:21;100780.91;;;15.98;57.06
55077;BME280;40971;44.702;11.030;2023-04-25T14:11:22;100778.31;;;16.65;54.53
55077;BME280;40971;44.702;11.030;2023-04-25T14:21:23;100783.53;;;15.91;56.52
55077;BME280;40971;44.702;11.030;2023-04-25T14:31:24;100793.44;;;15.76;56.82
55077;BME280;40971;44.702;11.030;2023-04-25T14:41:27;100787.75;;;15.86;57.03
55077;BME280;40971;44.702;11.030;2023-04-25T14:51:28;100781.22;;;16.16;56.38
55077;BME280;40971;44.702;11.030;2023-04-25T15:01:29;100796.09;;;15.76;57.36
55077;BME280;40971;44.702;11.030;2023-04-25T15:11:30;100800.78;;;15.74;57.17
55077;BME280;40971;44.702;11.030;2023-04-25T15:21:32;100808.28;;;15.70;58.52
55077;BME280;40971;44.702;11.030;2023-04-25T15:31:33;100821.72;;;14.78;60.19
55077;BME280;40971;44.702;11.030;2023-04-25T15:41:36;100819.53;;;14.45;60.45
55077;BME280;40971;44.702;11.030;2023-04-25T15:51:37;100842.06;;;14.41;61.49
55077;BME280;40971;44.702;11.030;2023-04-25T16:01:38;100857.91;;;14.41;61.53
55077;BME280;40971;44.702;11.030;2023-04-25T16:11:40;100881.63;;;14.49;59.45
55077;BME280;40971;44.702;11.030;2023-04-25T16:21:42;100901.53;;;14.45;59.16
55077;BME280;40971;44.702;11.030;2023-04-25T16:31:43;100882.09;;;14.38;61.15
55077;BME280;40971;44.702;11.030;2023-04-25T16:41:44;100860.09;;;14.38;62.14
55077;BME280;40971;44.702;11.030;2023-04-25T16:51:46;100823.66;;;14.33;63.54
55077;BME280;40971;44.702;11.030;2023-04-25T17:01:48;100801.66;;;14.33;59.37
55077;BME280;40971;44.702;11.030;2023-04-25T17:11:49;100816.88;;;14.31;60.34
55077;BME280;40971;44.702;11.030;2023-04-25T17:21:50;100832.13;;;14.14;60.53
55077;BME280;40971;44.702;11.030;2023-04-25T17:31:51;100838.03;;;13.87;61.59
55077;BME280;40971;44.702;11.030;2023-04-25T17:41:53;100827.13;;;13.90;62.46
55077;BME280;40971;44.702;11.030;2023-04-25T17:51:54;100849.41;;;13.73;63.49
55077;BME280;40971;44.702;11.030;2023-04-25T18:02:14;100864.44;;;13.72;64.17
55077;BME280;40971;44.702;11.030;2023-04-25T18:12:35;100870.78;;;13.63;64.40
55077;BME280;40971;44.702;11.030;2023-04-25T18:22:36;100884.38;;;13.37;65.32
55077;BME280;40971;44.702;11.030;2023-04-25T18:32:37;100895.31;;;13.12;65.67
55077;BME280;40971;44.702;11.030;2023-04-25T18:42:39;100925.34;;;12.72;67.83
55077;BME280;40971;44.702;11.030;2023-04-25T19:03:20;100962.41;;;12.15;68.98
55077;BME280;40971;44.702;11.030;2023-04-25T19:13:41;100976.25;;;12.17;69.67
55077;BME280;40971;44.702;11.030;2023-04-25T19:23:42;100982.16;;;11.63;70.72
55077;BME280;40971;44.702;11.030;2023-04-25T19:34:04;100989.97;;;11.23;72.42
55077;BME280;40971;44.702;11.030;2023-04-25T19:44:07;101007.75;;;11.21;73.06
55077;BME280;40971;44.702;11.030;2023-04-25T20:04:29;101017.28;;;10.80;74.01
55077;BME280;40971;44.702;11.030;2023-04-25T20:14:31;101017.47;;;10.09;75.94
55077;BME280;40971;44.702;11.030;2023-04-25T20:25:10;101021.00;;;10.18;76.85
55077;BME280;40971;44.702;11.030;2023-04-25T20:45:32;101013.53;;;10.57;76.10
55077;BME280;40971;44.702;11.030;2023-04-25T20:55:52;101023.78;;;10.16;77.00
55077;BME280;40971;44.702;11.030;2023-04-25T21:05:53;101034.16;;;9.82;77.53
55077;BME280;40971;44.702;11.030;2023-04-25T21:15:55;101032.72;;;9.70;79.02
55077;BME280;40971;44.702;11.030;2023-04-25T21:25:57;101032.78;;;9.43;78.42
55077;BME280;40971;44.702;11.030;2023-04-25T21:35:58;101052.13;;;8.88;79.25
55077;BME280;40971;44.702;11.030;2023-04-25T21:45:59;101049.53;;;8.68;81.36
55077;BME280;40971;44.702;11.030;2023-04-25T21:56:00;101056.75;;;8.57;81.37
55077;BME280;40971;44.702;11.030;2023-04-25T22:06:01;101061.19;;;8.18;86.38
55077;BME280;40971;44.702;11.030;2023-04-25T22:16:03;101073.19;;;8.40;86.13
55077;BME280;40971;44.702;11.030;2023-04-25T22:26:04;101080.84;;;8.70;85.08
55077;BME280;40971;44.702;11.030;2023-04-25T22:36:05;101087.09;;;8.59;84.62
55077;BME280;40971;44.702;11.030;2023-04-25T22:46:15;101104.75;;;8.00;83.01
55077;BME280;40971;44.702;11.030;2023-04-25T22:56:53;101123.34;;;7.97;82.89
55077;BME280;40971;44.702;11.030;2023-04-25T23:06:55;101108.44;;;8.07;84.06
55077;BME280;40971;44.702;11.030;2023-04-25T23:16:56;101119.38;;;8.12;83.17
55077;BME280;40971;44.702;11.030;2023-04-25T23:26:57;101133.38;;;7.73;83.82
55077;BME280;40971;44.702;11.030;2023-04-25T23:36:59;101136.84;;;7.92;84.81
55077;BME280;40971;44.702;11.030;2023-04-25T23:47:05;101126.09;;;8.05;84.52
55077;BME280;40971;44.702;11.030;2023-04-25T23:57:25;101142.97;;;8.31;84.32
